Time;durP1;ratioP1;P1;durP2;ratioP2;P2;SDS_P1;SDS_P2;PMS_P1;PMS_P2;Temp;Humidity;BMP_temperature;BMP_pressure;BME280_temperature;BME280_humidity;BME280_pressure;Samples;Min_cycle;Max_cycle;Signal;HPM_P1;HPM_P2
2023/06/04 00:01:51;;;;;;;;;6.00;6.00;;;;;20.69;41.93;100881.47;5037426;28;45575;-60
2023/06/04 00:04:16;;;;;;;;;7.00;6.67;;;;;20.68;40.35;100896.63;5055331;28;45518;-58
2023/06/04 00:06:42;;;;;;;;;5.67;5.67;;;;;20.62;41.09;100890.88;5054868;28;55807;-58
2023/06/04 00:09:07;;;;;;;;;6.33;6.33;;;;;20.58;41.95;100884.91;5054389;28;45383;-60
2023/06/04 00:11:35;;;;;;;;;7.00;7.00;;;;;20.54;40.79;100887.91;5055293;28;45470;-59
2023/06/04 00:14:01;;;;;;;;;6.00;6.00;;;;;20.54;42.00;100885.25;5055587;28;45517;-58
2023/06/04 00:16:26;;;;;;;;;7.00;5.33;;;;;20.52;42.54;100899.53;5055037;28;45289;-58
2023/06/04 00:18:51;;;;;;;;;5.33;5.33;;;;;20.47;40.78;100887.44;5054202;28;45302;-59
2023/06/04 00:21:17;;;;;;;;;5.67;5.67;;;;;20.42;41.51;100898.50;5036865;28;45677;-58
2023/06/04 00:23:42;;;;;;;;;5.33;5.33;;;;;20.40;41.31;100902.25;5055000;28;45521;-59
2023/06/04 00:26:07;;;;;;;;;6.00;6.00;;;;;20.34;42.24;100892.84;5054874;28;45832;-59
2023/06/04 00:28:33;;;;;;;;;6.67;6.00;;;;;20.36;41.78;100895.41;5054658;28;53814;-61
2023/06/04 00:30:58;;;;;;;;;5.67;5.67;;;;;20.38;42.40;100894.31;5055177;28;45325;-59
2023/06/04 00:33:23;;;;;;;;;6.00;5.00;;;;;20.36;42.21;100893.56;5053340;28;45534;-59
2023/06/04 00:35:49;;;;;;;;;8.00;6.00;;;;;20.38;41.04;100905.00;5054567;28;54772;-58
2023/06/04 00:38:14;;;;;;;;;4.67;4.67;;;;;20.33;41.93;100900.97;5054696;28;45523;-57
2023/06/04 00:40:40;;;;;;;;;4.67;4.67;;;;;20.33;42.38;100901.81;5054816;28;45465;-60
2023/06/04 00:43:05;;;;;;;;;6.00;6.00;;;;;20.33;41.55;100901.81;5056267;28;45585;-57
2023/06/04 00:45:31;;;;;;;;;6.00;6.00;;;;;20.30;42.32;100897.53;5058027;28;46071;-58
2023/06/04 00:47:57;;;;;;;;;6.00;6.00;;;;;20.23;41.22;100896.28;5057589;28;45482;-58
2023/06/04 00:50:24;;;;;;;;;5.00;5.00;;;;;20.21;41.23;100897.34;5057243;28;45411;-61
2023/06/04 00:52:50;;;;;;;;;5.33;5.00;;;;;20.14;41.19;100896.06;5057455;28;45508;-60
2023/06/04 00:55:17;;;;;;;;;6.00;6.00;;;;;20.10;41.69;100894.59;5057780;28;46606;-59
2023/06/04 00:57:43;;;;;;;;;5.33;5.00;;;;;20.02;41.01;100890.66;5057707;28;45412;-57
2023/06/04 01:00:09;;;;;;;;;5.00;5.00;;;;;20.01;41.41;100896.06;5058095;28;45390;-60
2023/06/04 01:02:40;;;;;;;;;6.00;6.00;;;;;19.99;42.35;100906.03;5057588;28;45664;-59
2023/06/04 01:05:22;;;;;;;;;5.33;5.33;;;;;19.95;43.83;100902.72;5057057;28;47393;-60
2023/06/04 01:07:48;;;;;;;;;6.67;5.67;;;;;19.94;42.05;100905.50;5052846;28;45476;-58
2023/06/04 01:10:14;;;;;;;;;5.00;5.00;;;;;19.90;40.96;100899.50;5039924;28;45505;-60
2023/06/04 01:12:41;;;;;;;;;4.00;4.00;;;;;19.90;41.28;100912.00;5050170;28;45504;-61
2023/06/04 01:15:07;;;;;;;;;3.33;3.00;;;;;19.89;42.22;100900.47;5057648;28;46157;-58
2023/06/04 01:17:41;;;;;;;;;4.00;4.00;;;;;19.85;41.14;100893.63;5056627;28;45494;-59
2023/06/04 01:20:18;;;;;;;;;7.67;7.00;;;;;19.84;42.28;100892.78;5057736;28;45449;-59
2023/06/04 01:23:05;;;;;;;;;8.00;7.00;;;;;19.85;44.02;100894.50;5056901;28;45956;-59
2023/06/04 01:25:39;;;;;;;;;6.00;6.00;;;;;19.85;42.46;100894.50;5057522;28;45708;-58
2023/06/04 01:28:07;;;;;;;;;6.00;6.00;;;;;19.85;43.04;100898.97;5057056;28;45640;-60
2023/06/04 01:30:36;;;;;;;;;5.00;5.00;;;;;19.83;41.59;100900.91;5057448;28;45511;-60
2023/06/04 01:33:02;;;;;;;;;7.33;7.33;;;;;19.84;42.80;100891.94;5057039;28;45397;-59
2023/06/04 01:35:31;;;;;;;;;6.33;6.33;;;;;19.86;41.94;100904.22;5056859;28;46417;-60
2023/06/04 01:37:57;;;;;;;;;4.00;4.00;;;;;19.81;42.28;100890.31;5054241;28;45497;-58
2023/06/04 01:40:23;;;;;;;;;7.00;7.00;;;;;19.85;42.63;100896.28;5057058;28;45446;-59
2023/06/04 01:42:49;;;;;;;;;6.00;6.00;;;;;19.86;43.09;100898.03;5038430;28;45666;-57
2023/06/04 01:45:14;;;;;;;;;6.67;5.00;;;;;19.84;42.10;100903.44;5056852;28;46493;-58
2023/06/04 01:47:40;;;;;;;;;6.67;5.67;;;;;19.86;42.91;100896.19;5039098;28;45379;-61
2023/06/04 01:50:09;;;;;;;;;5.00;5.00;;;;;19.86;41.01;100901.53;5056949;28;45377;-58
2023/06/04 01:52:38;;;;;;;;;6.00;6.00;;;;;19.85;41.77;100906.97;5056765;28;45547;-58
2023/06/04 01:55:11;;;;;;;;;6.33;6.33;;;;;19.81;41.65;100900.16;5056338;28;45421;-59
2023/06/04 01:57:38;;;;;;;;;6.00;6.00;;;;;19.81;42.75;100900.16;5056020;28;45469;-58
2023/06/04 02:00:07;;;;;;;;;6.33;3.33;;;;;19.73;41.68;100902.50;5056880;28;45448;-61
2023/06/04 02:02:32;;;;;;;;;5.00;5.00;;;;;19.71;41.57;100912.41;5056752;28;45657;-61
2023/06/04 02:04:58;;;;;;;;;5.00;5.00;;;;;19.66;41.54;100904.72;5055653;28;45603;-59
2023/06/04 02:07:23;;;;;;;;;4.00;4.00;;;;;19.62;41.71;100909.38;5055852;28;45406;-56
2023/06/04 02:09:49;;;;;;;;;5.33;4.00;;;;;19.64;42.58;100914.63;5056477;28;48783;-57
2023/06/04 02:12:15;;;;;;;;;5.00;5.00;;;;;19.64;43.22;100915.47;5057242;28;45573;-59
2023/06/04 02:14:41;;;;;;;;;5.33;5.33;;;;;19.65;42.38;100911.00;5055555;28;46635;-57
2023/06/04 02:17:12;;;;;;;;;6.00;6.00;;;;;19.67;42.23;100918.94;5056425;28;45471;-57
2023/06/04 02:19:44;;;;;;;;;4.67;4.00;;;;;19.62;41.81;100908.53;5056850;28;45415;-59
2023/06/04 02:22:13;;;;;;;;;8.33;6.00;;;;;19.62;41.58;100913.88;5056878;28;45627;-59
2023/06/04 02:24:39;;;;;;;;;7.00;6.00;;;;;19.55;41.90;100910.75;5056553;28;45446;-58
2023/06/04 02:27:06;;;;;;;;;5.33;5.33;;;;;19.52;41.49;100910.97;5038447;28;45438;-59
2023/06/04 02:29:31;;;;;;;;;5.00;5.00;;;;;19.53;42.18;100918.03;5056232;28;45457;-59
2023/06/04 02:31:57;;;;;;;;;5.00;5.00;;;;;19.50;42.02;100912.88;5055555;28;45439;-58
2023/06/04 02:34:23;;;;;;;;;5.33;5.33;;;;;19.52;41.87;100926.13;5054765;28;52155;-58
2023/06/04 02:36:50;;;;;;;;;5.00;4.00;;;;;19.43;42.38;100914.28;5037545;28;45447;-58
2023/06/04 02:39:16;;;;;;;;;7.00;6.00;;;;;19.45;42.47;100916.81;5038377;28;45398;-60
2023/06/04 02:41:41;;;;;;;;;5.00;5.00;;;;;19.45;42.45;100914.16;5056344;28;45585;-58
2023/06/04 02:44:07;;;;;;;;;5.00;5.00;;;;;19.42;41.32;100916.09;5055377;28;49244;-60
2023/06/04 02:46:32;;;;;;;;;7.00;4.00;;;;;19.37;41.68;100912.88;5056225;28;45381;-59
2023/06/04 02:48:57;;;;;;;;;6.00;4.00;;;;;19.38;42.27;100911.91;5056631;28;45398;-59
2023/06/04 02:51:23;;;;;;;;;7.67;7.00;;;;;19.32;41.53;100912.31;5055938;28;54184;-60
2023/06/04 02:53:48;;;;;;;;;6.67;6.67;;;;;19.25;42.66;100908.34;5056150;28;47513;-60
2023/06/04 02:56:13;;;;;;;;;6.00;5.00;;;;;19.31;42.57;100917.75;5054918;28;45362;-58
2023/06/04 02:58:53;;;;;;;;;5.00;4.00;;;;;19.25;41.69;100915.50;5056160;28;46595;-60
2023/06/04 03:01:20;;;;;;;;;7.00;5.67;;;;;19.22;42.15;100913.03;5056238;28;45482;-60
2023/06/04 03:03:46;;;;;;;;;7.00;5.33;;;;;19.22;41.98;100919.22;5054919;28;45575;-60
2023/06/04 03:06:14;;;;;;;;;6.00;6.00;;;;;19.19;42.22;100919.44;5055646;28;45436;-57
2023/06/04 03:08:39;;;;;;;;;4.00;4.00;;;;;19.21;43.69;100912.19;5056235;28;45546;-58
2023/06/04 03:11:05;;;;;;;;;5.33;5.33;;;;;19.19;43.54;100909.63;5056003;28;45444;-60
2023/06/04 03:13:30;;;;;;;;;5.00;5.00;;;;;19.20;42.02;100919.31;5056326;28;46325;-59
2023/06/04 03:15:56;;;;;;;;;5.00;5.00;;;;;19.16;42.52;100912.47;5037827;28;45352;-58
2023/06/04 03:18:22;;;;;;;;;6.00;6.00;;;;;19.19;42.60;100912.28;5055152;28;45530;-61
2023/06/04 03:20:48;;;;;;;;;5.67;5.33;;;;;19.16;41.67;100907.16;5054812;28;45564;-60
2023/06/04 03:23:13;;;;;;;;;5.67;5.00;;;;;19.18;43.00;100902.59;5055530;28;46321;-61
2023/06/04 03:25:38;;;;;;;;;6.00;6.00;;;;;19.18;42.57;100907.91;5055913;28;45367;-59
2023/06/04 03:28:04;;;;;;;;;7.33;7.33;;;;;19.20;42.89;100907.78;5055883;28;45371;-60
2023/06/04 03:30:29;;;;;;;;;6.00;4.67;;;;;19.20;42.79;100902.47;5037290;28;45393;-61
2023/06/04 03:32:54;;;;;;;;;4.00;4.00;;;;;19.15;42.89;100913.41;5055360;28;45413;-60
2023/06/04 03:35:20;;;;;;;;;5.00;5.00;;;;;19.17;42.07;100908.84;5054329;28;45509;-58
2023/06/04 03:37:45;;;;;;;;;4.67;3.67;;;;;19.18;42.01;100904.38;5055814;28;45467;-58
2023/06/04 03:40:11;;;;;;;;;5.00;5.00;;;;;19.13;42.47;100904.69;5055567;28;45328;-59
2023/06/04 03:42:37;;;;;;;;;5.33;4.00;;;;;19.12;42.63;100908.28;5041445;28;45746;-59
2023/06/04 03:45:02;;;;;;;;;5.00;5.00;;;;;19.08;41.84;100903.28;5037037;28;49260;-57
2023/06/04 03:47:27;;;;;;;;;5.33;5.33;;;;;19.06;42.26;100910.53;5055569;28;45457;-57
2023/06/04 03:49:53;;;;;;;;;5.00;5.00;;;;;19.06;42.06;100908.72;5036957;28;49497;-59
2023/06/04 03:52:18;;;;;;;;;6.00;6.00;;;;;19.03;41.74;100916.06;5054553;28;46259;-59
2023/06/04 03:54:43;;;;;;;;;4.33;3.00;;;;;19.04;43.17;100917.75;5054910;28;51771;-58
2023/06/04 03:57:09;;;;;;;;;5.00;5.00;;;;;18.98;42.04;100924.34;5037479;28;45497;-59
2023/06/04 03:59:34;;;;;;;;;4.67;4.67;;;;;18.97;42.00;100926.16;5055648;28;45379;-58
2023/06/04 04:01:59;;;;;;;;;5.00;5.00;;;;;18.96;42.49;100928.94;5053673;28;45760;-59
2023/06/04 04:04:25;;;;;;;;;6.00;6.00;;;;;18.96;43.47;100918.25;5055279;28;45522;-60
2023/06/04 04:06:51;;;;;;;;;4.00;4.00;;;;;18.97;42.68;100922.66;5055234;28;45433;-57
2023/06/04 04:09:16;;;;;;;;;5.67;5.67;;;;;19.01;43.16;100926.81;5055275;28;45531;-56
2023/06/04 04:11:41;;;;;;;;;5.00;4.00;;;;;19.01;42.60;100931.31;5054476;28;58945;-58
2023/06/04 04:14:06;;;;;;;;;4.00;4.00;;;;;19.01;43.49;100926.81;5055561;28;45415;-58
2023/06/04 04:16:32;;;;;;;;;4.00;4.00;;;;;19.01;42.32;100931.31;5054865;28;45553;-60
2023/06/04 04:18:57;;;;;;;;;3.67;3.67;;;;;18.98;42.97;100932.34;5058377;28;45379;-60
2023/06/04 04:21:23;;;;;;;;;5.00;4.00;;;;;18.96;43.05;100931.59;5058311;28;46318;-57
2023/06/04 04:23:50;;;;;;;;;4.00;4.00;;;;;19.00;42.90;100941.13;5058606;28;45441;-59
2023/06/04 04:26:16;;;;;;;;;5.00;3.00;;;;;18.99;42.13;100931.38;5058433;28;45459;-58
2023/06/04 04:28:43;;;;;;;;;4.00;4.00;;;;;18.95;42.06;100935.22;5058641;28;45565;-59
2023/06/04 04:31:09;;;;;;;;;4.00;4.00;;;;;18.91;42.44;100934.56;5057417;28;45348;-58
2023/06/04 04:33:39;;;;;;;;;3.33;3.00;;;;;18.87;42.25;100935.72;5058191;28;45555;-60
2023/06/04 04:36:05;;;;;;;;;4.00;4.00;;;;;18.83;41.76;100928.84;5058059;28;45403;-58
2023/06/04 04:38:33;;;;;;;;;5.00;3.67;;;;;18.88;42.75;100936.56;5058496;28;45425;-59
2023/06/04 04:41:00;;;;;;;;;5.00;4.67;;;;;18.87;42.07;100935.72;5038900;28;45612;-60
2023/06/04 04:43:33;;;;;;;;;4.33;4.33;;;;;18.86;42.43;100939.34;5044896;28;45535;-60
2023/06/04 04:45:59;;;;;;;;;4.00;3.00;;;;;18.84;41.54;100935.06;5058271;28;45381;-58
2023/06/04 04:48:25;;;;;;;;;4.00;4.00;;;;;18.79;41.96;100947.84;5058120;28;45450;-59
2023/06/04 04:50:50;;;;;;;;;4.33;4.33;;;;;18.76;42.25;100949.72;5056962;28;45705;-59
2023/06/04 04:53:16;;;;;;;;;4.33;4.33;;;;;18.75;41.75;100940.03;5058042;28;45658;-58
2023/06/04 04:55:41;;;;;;;;;4.67;3.67;;;;;18.77;42.02;100946.09;5058239;28;45461;-60
2023/06/04 04:58:07;;;;;;;;;4.00;4.00;;;;;18.76;41.44;100947.06;5057911;28;51816;-61
2023/06/04 05:00:32;;;;;;;;;4.00;4.00;;;;;18.74;41.58;100943.63;5058123;28;45542;-60
2023/06/04 05:02:57;;;;;;;;;6.33;4.67;;;;;18.69;42.26;100931.53;5058218;28;45477;-59
2023/06/04 05:05:23;;;;;;;;;3.67;3.67;;;;;18.77;41.81;100950.56;5057234;28;45433;-58
2023/06/04 05:07:48;;;;;;;;;4.00;3.00;;;;;18.74;41.98;100946.31;5057873;28;45618;-58
2023/06/04 05:10:13;;;;;;;;;3.67;3.67;;;;;18.79;41.67;100953.16;5057898;28;45538;-59
2023/06/04 05:12:39;;;;;;;;;2.67;2.33;;;;;18.71;42.61;100953.63;5058764;28;45458;-58
2023/06/04 05:15:05;;;;;;;;;3.00;3.00;;;;;18.73;41.25;100954.38;5039198;28;45480;-59
2023/06/04 05:17:30;;;;;;;;;4.67;4.67;;;;;18.72;41.83;100958.81;5058080;28;45312;-58
2023/06/04 05:20:11;;;;;;;;;6.00;5.00;;;;;18.70;41.29;100952.75;5057354;28;52889;-58
2023/06/04 05:22:37;;;;;;;;;2.67;2.67;;;;;18.68;42.23;100960.00;5057867;28;45441;-60
2023/06/04 05:25:03;;;;;;;;;5.00;5.00;;;;;18.65;41.83;100957.53;5057659;28;45403;-58
2023/06/04 05:27:28;;;;;;;;;3.00;3.00;;;;;18.70;42.32;100958.09;5057315;28;45344;-60
2023/06/04 05:29:53;;;;;;;;;4.00;4.00;;;;;18.71;41.88;100957.13;5056584;28;45505;-60
2023/06/04 05:32:19;;;;;;;;;4.00;4.00;;;;;18.74;42.63;100964.94;5056800;28;45427;-59
2023/06/04 05:34:44;;;;;;;;;5.00;3.67;;;;;18.77;41.76;100962.09;5057240;28;45390;-61
2023/06/04 05:37:09;;;;;;;;;3.00;3.00;;;;;18.71;40.85;100954.47;5039352;28;45592;-58
2023/06/04 05:39:35;;;;;;;;;4.00;4.00;;;;;18.70;41.51;100963.41;5057340;28;46454;-59
2023/06/04 05:42:01;;;;;;;;;3.00;3.00;;;;;18.68;41.34;100967.97;5057622;28;45471;-58
2023/06/04 05:44:26;;;;;;;;;2.00;2.00;;;;;18.68;42.64;100957.31;5057428;28;45378;-61
2023/06/04 05:46:52;;;;;;;;;4.00;4.00;;;;;18.70;42.43;100965.25;5056529;28;45656;-57
2023/06/04 05:49:17;;;;;;;;;4.00;4.00;;;;;18.73;41.79;100973.88;5055344;28;45431;-60
2023/06/04 05:51:43;;;;;;;;;5.00;5.00;;;;;18.76;41.87;100981.72;5057018;28;45442;-58
2023/06/04 05:54:08;;;;;;;;;2.67;2.67;;;;;18.75;42.33;100976.47;5058664;28;45349;-60
2023/06/04 05:56:33;;;;;;;;;3.00;3.00;;;;;18.78;41.66;100984.28;5056955;28;45329;-60
2023/06/04 05:58:59;;;;;;;;;5.33;4.33;;;;;18.77;41.48;100978.06;5056914;28;45489;-60
2023/06/04 06:01:24;;;;;;;;;5.00;5.00;;;;;18.82;40.90;100984.94;5056502;28;54465;-59
2023/06/04 06:03:49;;;;;;;;;3.00;3.00;;;;;18.80;41.50;100989.50;5054807;28;45507;-54
2023/06/04 06:06:15;;;;;;;;;4.00;4.00;;;;;18.82;41.39;100990.28;5055335;28;46273;-61
2023/06/04 06:08:40;;;;;;;;;5.00;4.00;;;;;18.82;41.34;100990.28;5038377;28;47104;-62
2023/06/04 06:11:07;;;;;;;;;3.00;3.00;;;;;18.82;41.96;100985.78;5055297;28;45526;-62
2023/06/04 06:13:32;;;;;;;;;3.00;3.00;;;;;18.80;40.84;100992.16;5056315;28;45601;-61
2023/06/04 06:15:57;;;;;;;;;3.00;1.33;;;;;18.82;40.83;100992.94;5054967;28;45521;-59
2023/06/04 06:18:23;;;;;;;;;4.00;4.00;;;;;18.81;41.60;100996.56;5055202;28;45902;-60
2023/06/04 06:20:48;;;;;;;;;3.67;3.67;;;;;18.81;41.03;100996.56;5056119;28;45487;-57
2023/06/04 06:23:14;;;;;;;;;4.00;4.00;;;;;18.82;41.52;100998.25;5056157;28;45399;-59
2023/06/04 06:25:45;;;;;;;;;3.00;3.00;;;;;18.81;40.75;100993.91;5056046;28;45474;-60
2023/06/04 06:28:11;;;;;;;;;4.00;4.00;;;;;18.71;40.95;100986.44;5056142;28;46534;-61
2023/06/04 06:30:37;;;;;;;;;5.00;4.00;;;;;18.76;40.66;101000.34;5055984;28;45426;-62
2023/06/04 06:33:02;;;;;;;;;5.33;4.67;;;;;18.81;41.16;100999.22;5054628;28;50997;-60
2023/06/04 06:35:28;;;;;;;;;4.33;4.33;;;;;18.82;40.76;101000.94;5054923;28;54252;-57
2023/06/04 06:37:53;;;;;;;;;4.67;4.67;;;;;18.81;41.25;101000.06;5055774;28;46250;-59
2023/06/04 06:40:19;;;;;;;;;3.67;3.33;;;;;18.81;42.32;100993.91;5052587;28;45435;-54
2023/06/04 06:42:49;;;;;;;;;5.00;4.67;;;;;18.92;42.58;101005.56;5055712;28;45652;-58
2023/06/04 06:45:15;;;;;;;;;4.00;4.00;;;;;18.92;41.97;100997.56;5054588;28;45584;-58
2023/06/04 06:47:40;;;;;;;;;5.00;5.00;;;;;19.01;42.09;100998.78;5054621;28;45453;-58
2023/06/04 06:50:06;;;;;;;;;4.67;4.67;;;;;19.07;41.86;101003.72;5054830;28;60414;-55
2023/06/04 06:52:31;;;;;;;;;4.00;4.00;;;;;19.12;41.80;101008.75;5055937;28;45494;-58
2023/06/04 06:54:57;;;;;;;;;3.67;3.67;;;;;19.15;41.48;101008.56;5054773;28;62120;-55
2023/06/04 06:57:22;;;;;;;;;3.00;3.00;;;;;19.16;41.54;101013.81;5055757;28;46617;-56
2023/06/04 06:59:48;;;;;;;;;8.00;5.00;;;;;19.17;41.59;101004.84;5055262;28;45431;-57
2023/06/04 07:02:13;;;;;;;;;3.00;3.00;;;;;19.19;40.71;101005.59;5054733;28;45376;-54
2023/06/04 07:04:38;;;;;;;;;3.33;3.33;;;;;19.22;41.05;100998.38;5055824;28;45687;-59
2023/06/04 07:07:04;;;;;;;;;3.67;3.67;;;;;19.26;41.04;100999.88;5055058;28;54357;-58
2023/06/04 07:09:29;;;;;;;;;3.33;3.33;;;;;19.27;41.28;101004.25;5055356;28;54973;-56
2023/06/04 07:11:55;;;;;;;;;3.33;3.33;;;;;19.28;41.41;101001.47;5054757;28;45418;-55
2023/06/04 07:14:21;;;;;;;;;3.33;3.33;;;;;19.33;40.69;101012.69;5038229;28;45430;-51
2023/06/04 07:16:46;;;;;;;;;5.33;4.67;;;;;19.36;41.27;101012.50;5053230;28;46104;-59
2023/06/04 07:19:11;;;;;;;;;2.00;2.00;;;;;19.40;40.84;101008.69;5055334;28;45371;-59
2023/06/04 07:21:36;;;;;;;;;5.67;5.67;;;;;19.47;42.20;101011.78;5055103;28;49258;-60
2023/06/04 07:24:02;;;;;;;;;2.33;2.33;;;;;19.62;41.44;101012.59;5054364;28;52252;-60
2023/06/04 07:26:30;;;;;;;;;4.00;4.00;;;;;19.64;41.30;101003.53;5055380;28;45385;-60
2023/06/04 07:28:56;;;;;;;;;3.67;3.67;;;;;19.72;40.88;101007.50;5055276;28;45454;-60
2023/06/04 07:31:22;;;;;;;;;4.67;2.67;;;;;19.76;40.73;101006.38;5035981;28;45622;-60
2023/06/04 07:33:47;;;;;;;;;3.00;3.00;;;;;19.75;41.58;101000.19;5055042;28;45612;-59
2023/06/04 07:36:13;;;;;;;;;4.00;4.00;;;;;19.82;40.90;101011.28;5035409;28;45745;-60
2023/06/04 07:38:38;;;;;;;;;4.33;4.33;;;;;19.87;40.78;101003.81;5055146;28;45546;-59
2023/06/04 07:41:04;;;;;;;;;3.67;3.67;;;;;19.86;40.54;101010.13;5055183;28;45470;-59
2023/06/04 07:43:29;;;;;;;;;4.67;4.67;;;;;19.83;40.51;101005.84;5055075;28;45534;-60
2023/06/04 07:45:55;;;;;;;;;4.00;4.00;;;;;19.82;40.12;101000.59;5054990;28;50112;-60
2023/06/04 07:48:20;;;;;;;;;4.67;4.67;;;;;19.86;39.88;101007.47;5054815;28;45347;-60
2023/06/04 07:50:46;;;;;;;;;3.00;3.00;;;;;19.78;40.16;100988.44;5054796;28;45382;-61
2023/06/04 07:53:11;;;;;;;;;5.00;5.00;;;;;19.90;40.16;101010.78;5056799;28;45570;-62
2023/06/04 07:55:36;;;;;;;;;2.00;2.00;;;;;19.93;41.24;101006.06;5057295;28;45457;-61
2023/06/04 07:58:02;;;;;;;;;2.00;2.00;;;;;19.95;40.54;100996.16;5058348;28;45329;-61
2023/06/04 08:00:27;;;;;;;;;3.00;3.00;;;;;19.99;40.49;100992.31;5058226;28;45405;-56
2023/06/04 08:02:53;;;;;;;;;3.33;3.33;;;;;19.98;41.54;100985.25;5057602;28;45312;-58
2023/06/04 08:05:18;;;;;;;;;3.33;3.33;;;;;20.05;41.08;100993.72;5057934;28;46117;-56
2023/06/04 08:07:43;;;;;;;;;4.00;3.00;;;;;20.11;40.22;101003.97;5057121;28;45439;-60
2023/06/04 08:10:09;;;;;;;;;5.00;4.00;;;;;20.13;40.15;100995.84;5064071;28;45569;-56
2023/06/04 08:12:35;;;;;;;;;3.00;3.00;;;;;20.18;40.51;101007.09;5059319;28;45403;-58
2023/06/04 08:15:00;;;;;;;;;6.00;5.00;;;;;20.19;40.34;100995.41;5057501;28;45560;-58
2023/06/04 08:17:26;;;;;;;;;3.00;2.33;;;;;20.22;39.71;100989.88;5057709;28;45446;-56
2023/06/04 08:19:51;;;;;;;;;7.00;5.00;;;;;20.20;39.65;100992.66;5058160;28;45520;-56
2023/06/04 08:22:16;;;;;;;;;3.33;3.33;;;;;20.22;39.86;100993.38;5057572;28;45512;-56
2023/06/04 08:24:42;;;;;;;;;3.00;3.00;;;;;20.21;40.06;100982.81;5057279;28;46352;-57
2023/06/04 08:27:08;;;;;;;;;2.33;2.33;;;;;20.30;40.00;100999.03;5058235;28;45506;-56
2023/06/04 08:29:35;;;;;;;;;4.00;4.00;;;;;20.32;39.68;100990.09;5058057;28;45356;-57
2023/06/04 08:32:01;;;;;;;;;4.33;3.00;;;;;20.36;39.10;100986.22;5057472;28;45486;-53
2023/06/04 08:34:26;;;;;;;;;5.67;4.00;;;;;20.40;40.16;100993.94;5056919;28;45388;-54
2023/06/04 08:36:51;;;;;;;;;4.00;4.00;;;;;20.40;40.31;100991.25;5057584;28;47390;-57
2023/06/04 08:39:17;;;;;;;;;5.33;4.33;;;;;20.48;39.51;100996.91;5057306;28;45387;-58
2023/06/04 08:41:48;;;;;;;;;3.33;3.33;;;;;20.50;39.11;100992.31;5058192;28;45564;-56
2023/06/04 08:44:16;;;;;;;;;4.67;4.67;;;;;20.51;40.50;100986.00;5057009;28;46843;-55
2023/06/04 08:46:43;;;;;;;;;2.67;2.67;;;;;20.56;39.38;100985.72;5057442;28;45415;-60
2023/06/04 08:49:09;;;;;;;;;4.00;4.00;;;;;20.62;39.54;100989.75;5046002;28;45362;-56
2023/06/04 08:51:37;;;;;;;;;5.00;4.00;;;;;20.66;40.06;100981.44;5055511;28;45587;-54
2023/06/04 08:54:07;;;;;;;;;7.00;7.00;;;;;20.68;39.49;100987.50;5057536;28;45434;-59
2023/06/04 08:56:36;;;;;;;;;7.00;7.00;;;;;20.74;38.66;100992.41;5057380;28;45371;-58
2023/06/04 08:59:03;;;;;;;;;5.00;5.00;;;;;20.79;38.02;100985.88;5057595;28;45514;-55
2023/06/04 09:01:33;;;;;;;;;7.00;4.00;;;;;20.80;38.30;100988.44;5039461;28;45526;-57
2023/06/04 09:04:01;;;;;;;;;4.00;3.00;;;;;20.81;37.59;100982.13;5056700;28;45652;-55
2023/06/04 09:06:26;;;;;;;;;5.00;5.00;;;;;20.88;38.89;100975.38;5057373;28;45476;-55
2023/06/04 09:08:55;;;;;;;;;5.00;5.00;;;;;20.82;38.48;100965.13;5057680;28;45493;-58
2023/06/04 09:11:22;;;;;;;;;6.33;5.00;;;;;20.93;37.72;100975.91;5057576;28;45569;-59
2023/06/04 09:13:49;;;;;;;;;3.33;3.33;;;;;21.03;38.16;100988.59;5057300;28;46094;-58
2023/06/04 09:16:14;;;;;;;;;5.00;5.00;;;;;21.09;37.46;100980.09;5053904;28;45490;-55
2023/06/04 09:18:40;;;;;;;;;3.00;3.00;;;;;21.14;38.17;100977.94;5067042;27;45861;-58
2023/06/04 09:21:07;;;;;;;;;5.00;4.67;;;;;21.19;37.60;100975.78;5050803;28;45585;-60
2023/06/04 09:23:49;;;;;;;;;5.00;5.00;;;;;21.19;36.17;100978.47;5058319;28;46107;-59
2023/06/04 09:26:14;;;;;;;;;2.67;2.67;;;;;21.18;35.79;100979.44;5057129;28;45329;-60
2023/06/04 09:28:45;;;;;;;;;4.00;4.00;;;;;21.22;36.06;100974.72;5057245;28;45440;-60
2023/06/04 09:31:16;;;;;;;;;7.00;5.33;;;;;21.26;36.96;100973.53;5057146;28;45566;-60
2023/06/04 09:33:46;;;;;;;;;5.67;5.67;;;;;21.27;36.68;100967.22;5056309;28;46237;-59
2023/06/04 09:36:12;;;;;;;;;5.67;4.67;;;;;21.31;36.38;100974.91;5056673;28;45385;-56
2023/06/04 09:38:38;;;;;;;;;5.00;5.00;;;;;21.36;37.40;100975.41;5056741;28;45390;-56
2023/06/04 09:41:06;;;;;;;;;6.00;5.00;;;;;21.43;35.57;100985.69;5061308;28;45635;-55
2023/06/04 09:43:32;;;;;;;;;6.00;6.00;;;;;21.46;35.70;100982.78;5047364;28;46205;-56
2023/06/04 09:46:12;;;;;;;;;4.00;3.67;;;;;21.45;35.44;100981.91;5056825;28;45476;-56
2023/06/04 09:48:39;;;;;;;;;3.00;3.00;;;;;21.47;35.10;100996.06;5044623;28;45415;-62
2023/06/04 09:51:07;;;;;;;;;4.00;3.00;;;;;21.50;35.18;100994.97;5056899;28;45788;-58
2023/06/04 09:53:32;;;;;;;;;3.67;3.67;;;;;21.50;33.99;100994.97;5042628;28;46359;-59
2023/06/04 09:55:59;;;;;;;;;5.67;4.33;;;;;21.53;35.25;100992.06;5056882;28;45585;-56
2023/06/04 09:58:28;;;;;;;;;3.00;3.00;;;;;21.55;35.38;101003.50;5056698;28;45490;-57
2023/06/04 10:00:58;;;;;;;;;5.00;4.00;;;;;21.55;34.36;100995.47;5056553;28;45316;-57
2023/06/04 10:03:25;;;;;;;;;3.00;3.00;;;;;21.59;34.25;101002.28;5038477;28;47118;-57
2023/06/04 10:05:53;;;;;;;;;3.00;2.33;;;;;21.60;35.37;100999.50;5056750;28;45323;-57
2023/06/04 10:08:21;;;;;;;;;3.33;3.33;;;;;21.59;34.56;101000.47;5056639;28;45459;-56
2023/06/04 10:10:48;;;;;;;;;5.00;5.00;;;;;21.61;34.70;101003.88;5055448;28;45518;-59
2023/06/04 10:13:18;;;;;;;;;2.33;2.33;;;;;21.65;34.60;100996.47;5056383;28;45449;-58
2023/06/04 10:15:48;;;;;;;;;5.00;5.00;;;;;21.69;35.28;100999.78;5037853;28;45475;-52
2023/06/04 10:18:15;;;;;;;;;5.00;5.00;;;;;21.74;33.92;100992.25;5056562;28;45430;-59
2023/06/04 10:20:41;;;;;;;;;3.00;3.00;;;;;21.75;34.19;100994.81;5056329;28;45377;-59
2023/06/04 10:23:07;;;;;;;;;4.33;4.33;;;;;21.77;34.13;100994.69;5056282;28;46585;-56
2023/06/04 10:25:34;;;;;;;;;13.00;13.00;;;;;21.81;34.66;100986.28;5055909;28;45522;-58
2023/06/04 10:28:00;;;;;;;;;6.33;6.33;;;;;21.86;34.33;100985.09;5056187;28;45579;-55
2023/06/04 10:30:26;;;;;;;;;3.67;3.00;;;;;21.91;33.16;100989.13;5056219;28;45550;-59
2023/06/04 10:32:53;;;;;;;;;11.00;9.00;;;;;21.93;33.40;100994.38;5055311;28;46259;-58
2023/06/04 10:35:29;;;;;;;;;43.33;37.67;;;;;21.96;32.90;100986.97;5057620;28;45420;-56
2023/06/04 10:38:05;;;;;;;;;25.67;24.67;;;;;21.92;32.68;100965.88;5038454;28;45521;-54
2023/06/04 10:40:33;;;;;;;;;28.33;28.33;;;;;22.06;33.16;100987.13;5054440;28;45491;-54
2023/06/04 10:43:08;;;;;;;;;6.67;6.67;;;;;22.12;32.58;100992.00;5036920;28;48435;-56
2023/06/04 10:45:33;;;;;;;;;13.33;12.00;;;;;22.20;32.51;100984.22;5054147;28;45351;-56
2023/06/04 10:48:07;;;;;;;;;8.00;8.00;;;;;22.26;32.82;100991.78;5055267;28;45301;-57
2023/06/04 10:50:34;;;;;;;;;11.67;11.67;;;;;22.25;32.56;100983.88;5051471;28;45629;-57
2023/06/04 10:53:03;;;;;;;;;8.00;6.33;;;;;22.28;31.59;100979.13;5053937;28;45486;-61
2023/06/04 10:55:30;;;;;;;;;7.00;7.00;;;;;22.33;32.39;100981.44;5054855;28;45517;-62
2023/06/04 10:57:59;;;;;;;;;9.67;9.67;;;;;22.39;32.63;100988.16;5055637;28;45349;-62
2023/06/04 11:00:54;;;;;;;;;10.00;10.00;;;;;22.37;32.87;100988.25;5055703;28;45382;-61
2023/06/04 11:03:19;;;;;;;;;7.33;6.00;;;;;22.35;32.53;100986.69;5024568;28;46541;-60
2023/06/04 11:05:47;;;;;;;;;6.33;4.33;;;;;22.40;31.73;100987.16;5055827;28;45435;-62
2023/06/04 11:08:14;;;;;;;;;5.00;5.00;;;;;22.45;32.12;100993.88;5055755;28;45401;-59
2023/06/04 11:10:44;;;;;;;;;3.00;3.00;;;;;22.51;31.23;100992.53;5052979;28;45634;-61
2023/06/04 11:13:10;;;;;;;;;3.25;3.00;;;;;22.53;31.10;100987.91;5055308;28;46679;-60
2023/06/04 11:15:48;;;;;;;;;28.67;27.67;;;;;22.57;31.11;100984.03;5041929;28;45510;-59
2023/06/04 11:18:19;;;;;;;;;15.00;12.33;;;;;22.54;32.05;100988.75;5036212;28;45538;-56
2023/06/04 11:20:46;;;;;;;;;8.00;5.00;;;;;22.54;31.38;100995.00;5054422;28;45669;-61
2023/06/04 11:23:13;;;;;;;;;10.33;9.67;;;;;22.57;31.20;100996.53;5055409;28;46047;-56